Mohammed V International Airport (CMN/GMMN)




Flight Aircraft Arriving
CPX1156 B738
EBLG - Liège Airport
Belgium Liege, Belgium
Flight Aircraft Departing
CPX1155 B738
EBLG - Liège Airport
Belgium Liege, Belgium
Airport Information
Location: Casablanca, MA
Coordinates: 33.3642 / -7.58167
Elevation:
Time Offset:
Local Time:
UTC Time:
Jet A Price: $0.75/lbs

Current Weather
METAR:
Warning: file_get_contents(https://api.aviationapi.com/v1/weather/metar?apt=GMMN): failed to open stream: HTTP request failed! HTTP/1.1 500 Internal Server Error in /var/www/capitollogistics/lib/skins/urban/hub/aptview.php on line 198
TAF: TAF GMMN 261100Z 2612/2718 20015KT 9999 BKN020 BECMG 2622/2624 18006KT 9999 SCT016

Recent Arrivals
Date Flight Type Depart
10/20/2019 CPX755 B738 Liège Airport (EBLG)
Recent Departures
Date Flight Type Arrive
10/31/2019 CPX756 B738 Liège Airport (EBLG)